Tiempo atmosférico en la estación meteorológica de Alcazar De San Juan, Ciudad Real (664 m.)



Fecha
DESCASC
Temp. máxima en grados centígrados (hora)
DESCASC
Temp. mínima en grados centígrados (hora)
DESCASC
Temp. media en grados centígrados
DESCASC
Racha de viento máxima en m/sg (hora)
DESCASC
Velocidad máxima media en intervalos de 10 minutos(hora)
DESCASC
Precipitaciones diarias en mm
DESCASC
Precipitaciones de 00:00 a 06:00 en mm
DESCASC
Precipitaciones de 06:00 a 12:00 en mm
DESCASC
Precipitaciones de 12:00 a 18:00 en mm
DESCASC
Precipitaciones de 18:00 a 24:00 en mm
DESCASC
11-12-2019 9.4 (16:20) -0.3 (09:10) 4.5 6.39 (16:20) 2.5 (16:20) 0 0 0 0 0
10-12-2019 8.7 (16:00) 3.1 (10:20) 5.9 3.61 (03:50) 1.67 (04:00) 0 0 0 0 0
09-12-2019 10.6 (16:20) 7.2 (22:20) 8.9 5 (15:20) 2.22 (15:20) 0 0 0 0 0
08-12-2019 7.8 (18:50) 4 (00:00) 5.9 4.17 (13:00) 2.22 (12:50) 0.6 0.2 0 0 0.4
07-12-2019 10.8 (16:00) 5.2 (00:00) 8 5.56 (04:30) 2.22 (21:40) 0 0 0 0 0
06-12-2019 11.9 (15:10) 6.4 (00:00) 9.1 7.5 (11:50) 2.5 (11:50) 0 0 0 0 0
05-12-2019 12 (13:40) 5.5 (00:00) 8.8 6.67 (10:50) 2.78 (10:50) 0.2 0.2 0 0 0
04-12-2019 8.9 (18:50) 5.7 (00:00) 7.3 6.11 (14:30) 2.5 (14:50) 2.4 0 1.8 0.6 0
03-12-2019 9.5 (12:40) 5.5 (00:00) 7.5 7.22 (13:40) 2.78 (12:20) 0 0 0 0 0
02-12-2019 10.4 (15:30) 7.1 (00:00) 8.7 8.06 (15:20) 3.06 (15:10) 9 7.4 0.8 0.4 0.4
01-12-2019 11.3 (15:10) 5.2 (00:00) 8.3 6.67 (11:30) 3.33 (12:30) 2 1.2 0 0.2 0.6
30-11-2019 14.6 (16:00) 9.1 (00:00) 11.9 9.44 (23:00) 3.33 (22:00) 0 0 0 0 0
29-11-2019 13.4 (15:10) 8.6 (00:00) 11 7.5 (10:40) 2.78 (14:40) 0 0 0 0 0
28-11-2019 11.2 (14:50) 5.5 (00:00) 8.3 6.67 (15:00) 2.78 (15:10) 0 0 0 0 0
27-11-2019 14.1 (15:10) 7.4 (00:00) 10.8 8.61 (05:50) 3.33 (15:10) 0.2 0.2 0 0 0
26-11-2019 14 (13:50) 9.6 (00:00) 11.8 7.22 (21:10) 2.78 (10:40) 0.4 0 0 0.2 0.2
25-11-2019 15.7 (15:50) 7.2 (00:00) 11.4 8.61 (16:00) 3.33 (15:50) 0.2 0.2 0 0 0
24-11-2019 10.9 (14:30) 1.7 (00:00) 6.3 4.72 (14:50) 2.5 (14:50) 0 0 0 0 0
23-11-2019 12.3 (14:50) 5.3 (00:00) 8.8 9.17 (12:30) 3.61 (13:20) 0.8 0.8 0 0 0
22-11-2019 12.2 (16:30) 7.5 (00:00) 9.8 9.72 (17:30) 5 (11:50) 9.2 0.4 0 8.8 0
21-11-2019 10.5 (16:00) 6.1 (00:00) 8.3 5.83 (16:10) 2.5 (13:30) 2.6 0.4 0 2.2 0
20-11-2019 10.3 (13:10) 2.4 (00:00) 6.4 5.28 (13:40) 2.5 (18:10) 2 0 0 1.6 0.4
19-11-2019 10.4 (14:40) 0.2 (00:00) 5.3 4.44 (15:50) 1.94 (14:40) 0 0 0 0 0
18-11-2019 10.9 (16:10) 2.6 (00:00) 6.7 10.56 (14:00) 3.89 (14:00) 0 0 0 0 0
17-11-2019 7.8 (21:40) -0.2 (00:00) 3.8 9.17 (13:30) 3.61 (13:30) 11.2 0 0 0.4 10.8
16-11-2019 10 (15:20) 0.7 (00:00) 5.3 6.11 (11:50) 2.5 (12:50) 0 0 0 0 0
15-11-2019 9.4 (15:50) 2.4 (00:00) 5.9 6.67 (12:20) 2.5 (15:50) 0 0 0 0 0
14-11-2019 10.6 (14:50) 4.1 (00:00) 7.4 10.83 (16:30) 3.89 (15:40) 3 0 3 0 0
13-11-2019 17 (14:20) 8.3 (00:00) 12.7 9.17 (12:50) 3.61 (12:50) 0.6 0.4 0.2 0 0
12-11-2019 12.4 (16:10) 3.3 (00:00) 7.8 6.94 (14:20) 2.78 (15:00) 0 0 0 0 0

Gráficas

Temp. máximas Temp. mínimas Temp. medias Precipitaciones Rachas de viento máximas Velocidades máximas media en intervalos de 10 minutos

Datos horarios

Fecha y hora oficial Temperatura (ºC) Velocidad del viento (km/h) Dirección del viento Racha (km/h) Dirección de racha Precipitación (mm) Presión (hPa) Tendencia (hPa) Humedad (%)
2019-12-11 23:00:00 4.9 4 Oeste 16 Noroeste 0 -- -- 84
2019-12-11 22:00:00 4.8 4 Noroeste 9 Oeste 0 -- -- 87
2019-12-11 21:00:00 5.3 3 Oeste 10 Noroeste 0 -- -- 86
2019-12-11 20:00:00 6.1 2 Noroeste 14 Norte 0 -- -- 79
2019-12-11 19:00:00 7.3 6 Noroeste 22 Noroeste 0 -- -- 74
2019-12-11 18:00:00 8 4 Noroeste 21 Noroeste 0 -- -- 81
2019-12-11 17:00:00 9.1 9 Noroeste 23 Noroeste 0 -- -- 78
2019-12-11 16:00:00 8.8 5 Noroeste 18 Norte 0 -- -- 83
2019-12-11 15:00:00 7.3 4 Noroeste 9 Oeste 0 -- -- 85
2019-12-11 14:00:00 5.8 3 Noroeste 7 Norte 0 -- -- 88
2019-12-11 13:00:00 5 0 Calma 6 Noroeste 0 -- -- 98
2019-12-11 12:00:00 4.4 0 Calma 13 Sudoeste 0 -- -- 100
2019-12-11 11:00:00 3.3 3 Sudoeste 8 Oeste 0 -- -- 100
2019-12-11 10:00:00 0.4 3 Sudoeste 8 Sur 0 -- -- 100
2019-12-11 09:00:00 -0.2 0 Calma 4 Sur 0 -- -- 100
2019-12-11 08:00:00 -0.1 4 Sur 8 Sur 0 -- -- 100
2019-12-11 07:00:00 0.2 0 Calma 6 Sudoeste 0 -- -- 100
2019-12-11 06:00:00 0.8 2 Sudoeste 6 Sur 0 -- -- 100
2019-12-11 05:00:00 1.2 3 Sur 6 Sudoeste 0 -- -- 100
2019-12-11 04:00:00 1.1 0 Calma 6 Sur 0 -- -- 99
2019-12-11 03:00:00 1.9 2 Sudoeste 6 Sur 0 -- -- 98
2019-12-11 02:00:00 2 2 Sur 4 Sudeste 0 -- -- 98
2019-12-11 01:00:00 2.7 0 Calma 4 Sudoeste 0 -- -- 97
2019-12-11 00:00:00 3.7 2 Sur 5 Sur 0 -- -- 96
2019-12-10 23:00:00 4.4 2 Sur 4 Sudeste 0 -- -- 96
2019-12-10 22:00:00 4.7 0 Calma 5 Sur 0 -- -- 95
2019-12-10 21:00:00 5.1 0 Calma 8 Sur 0 -- -- 94
2019-12-10 20:00:00 5.6 3 Sur 8 Sur 0 -- -- 92
2019-12-10 19:00:00 6.5 4 Sur 7 Sur 0 -- -- 90
2019-12-10 18:00:00 7.8 3 Oeste 6 Oeste 0 -- -- 85
2019-12-10 17:00:00 8.6 2 Sudoeste 5 Oeste 0 -- -- 77
2019-12-10 16:00:00 8.7 3 Noroeste 9 Noroeste 0 -- -- 75
2019-12-10 15:00:00 8.1 5 Noroeste 12 Oeste 0 -- -- 80
2019-12-10 14:00:00 6.4 0 Calma 8 Nordeste 0 -- -- 85
2019-12-10 13:00:00 4.9 0 Calma 7 Sudoeste 0 -- -- 93
2019-12-10 12:00:00 4.3 3 Sur 6 Sudoeste 0 -- -- 98
2019-12-10 11:00:00 3.7 2 Sudoeste 8 Oeste 0 -- -- 99
2019-12-10 10:00:00 3.3 3 Noroeste 5 Oeste 0 -- -- 99
2019-12-10 09:00:00 3.7 0 Calma 7 Oeste 0 -- -- 99
2019-12-10 08:00:00 3.8 3 Noroeste 12 Oeste 0 -- -- 99
2019-12-10 07:00:00 4.1 4 Oeste 9 Oeste 0 -- -- 98
2019-12-10 06:00:00 4.3 4 Norte 11 Norte 0 -- -- 98
2019-12-10 05:00:00 4.9 4 Noroeste 13 Nordeste 0 -- -- 96
2019-12-10 04:00:00 5.5 6 Norte 13 Noroeste 0 -- -- 95
2019-12-10 03:00:00 6.1 2 Noroeste 10 Norte 0 -- -- 95
2019-12-10 02:00:00 6.4 3 Norte 8 Noroeste 0 -- -- 96
2019-12-10 01:00:00 7.1 3 Noroeste 9 Noroeste 0 -- -- 96
2019-12-10 00:00:00 7.4 4 Noroeste 11 Noroeste 0 -- -- 95
2019-12-09 23:00:00 7.4 4 Norte 10 Norte 0 -- -- 96
2019-12-09 22:00:00 7.4 0 Calma 13 Nordeste 0 -- -- 95
2019-12-09 21:00:00 8 5 Norte 15 Norte 0 -- -- 94
2019-12-09 20:00:00 8.5 0 Calma 6 Norte 0 -- -- 93
2019-12-09 19:00:00 9 2 Sudoeste 8 Sur 0 -- -- 91
2019-12-09 18:00:00 9.9 2 Sudoeste 12 Sudoeste 0 -- -- 88
2019-12-09 17:00:00 10.5 5 Sudoeste 14 Oeste 0 -- -- 83
2019-12-09 16:00:00 10.5 6 Sudoeste 18 Sur 0 -- -- 81
2019-12-09 15:00:00 10 6 Sudoeste 17 Oeste 0 -- -- 80
2019-12-09 14:00:00 10 7 Sudoeste 17 Oeste 0 -- -- 82
2019-12-09 13:00:00 9.3 6 Oeste 14 Noroeste 0 -- -- 82
2019-12-09 12:00:00 8.8 3 Noroeste 13 Norte 0 -- -- 84
2019-12-09 11:00:00 8 3 Noroeste 11 Oeste 0 -- -- 89
2019-12-09 10:00:00 7.5 3 Noroeste 11 Oeste 0 -- -- 93
2019-12-09 09:00:00 7.4 2 Noroeste 9 Norte 0 -- -- 94
2019-12-09 08:00:00 7.5 0 Calma 8 Norte 0 -- -- 95
2019-12-09 07:00:00 7.5 3 Noroeste 10 Norte 0 -- -- 96
2019-12-09 06:00:00 7.7 3 Norte 15 Norte 0 -- -- 98
2019-12-09 05:00:00 8 3 Noroeste 8 Norte 0 -- -- 99
2019-12-09 04:00:00 7.8 0 Calma 5 Sudoeste 0 -- -- 99
2019-12-09 03:00:00 7.6 2 Sudoeste 8 Sudoeste 0 -- -- 99
2019-12-09 02:00:00 7.7 4 Sudoeste 7 Sur 0 -- -- 99
2019-12-09 01:00:00 7.7 0 Calma 4 Nordeste 0 -- -- 99
2019-12-09 00:00:00 7.7 0 Calma 2 Sudeste 0 -- -- 99
2019-12-08 23:00:00 7.5 0 Calma 4 Norte 0 -- -- 99
2019-12-08 22:00:00 7.3 2 Sur 4 Sur 0 -- -- 98
2019-12-08 21:00:00 7.6 0 Calma 7 Sudoeste 0 -- -- 98
2019-12-08 20:00:00 7.7 3 Sudoeste 8 Sur 0.2 -- -- 98
2019-12-08 19:00:00 7.8 2 Sur 5 Sur 0.2 -- -- 97
2019-12-08 18:00:00 7.7 0 Calma 3 Oeste 0 -- -- 97
2019-12-08 17:00:00 7.7 0 Calma 9 Oeste 0 -- -- 98
2019-12-08 16:00:00 7.4 3 Sudoeste 10 Sudoeste 0 -- -- 99
2019-12-08 15:00:00 7 5 Sudoeste 14 Sudoeste 0 -- -- 100
2019-12-08 14:00:00 6.6 5 Sur 14 Sudoeste 0 -- -- 100
2019-12-08 13:00:00 5.8 8 Sur 15 Sur 0 -- -- 100
2019-12-08 12:00:00 5 6 Sur 14 Sur 0 -- -- 100
2019-12-08 11:00:00 4.4 5 Sudoeste 12 Sudoeste 0 -- -- 100
2019-12-08 10:00:00 4.1 3 Sudoeste 10 Sur 0 -- -- 100
2019-12-08 09:00:00 4 5 Sur 9 Sur 0 -- -- 100
2019-12-08 08:00:00 4.3 3 Sudoeste 9 Sur 0 -- -- 100
2019-12-08 07:00:00 4.5 2 Sudoeste 7 Oeste 0 -- -- 100
2019-12-08 06:00:00 4.6 4 Sur 12 Sudoeste 0 -- -- 100
2019-12-08 05:00:00 4.8 5 Sur 10 Sur 0 -- -- 100
2019-12-08 04:00:00 5.2 3 Sudoeste 9 Sudoeste 0 -- -- 100
2019-12-08 03:00:00 5.4 3 Sudoeste 8 Oeste 0.2 -- -- 100
2019-12-08 02:00:00 5.4 2 Sudoeste 9 Sur 0 -- -- 99
2019-12-08 01:00:00 5.7 3 Sudoeste 10 Sudoeste 0 -- -- 99
2019-12-08 00:00:00 5.7 4 Sur 12 Oeste 0 -- -- 99
2019-12-07 23:00:00 5.9 3 Sudoeste 14 Sur 0 -- -- 98
2019-12-07 22:00:00 5.5 7 Sur 14 Sur 0 -- -- 97
2019-12-07 21:00:00 5.6 5 Sur 12 Sur 0 -- -- 94
2019-12-07 20:00:00 6.9 4 Sudoeste 10 Sur 0 -- -- 92
2019-12-07 19:00:00 8.2 2 Sudoeste 9 Sudoeste 0 -- -- 89
2019-12-07 18:00:00 9.7 0 Calma 6 Sur 0 -- -- 85
2019-12-07 17:00:00 10.5 2 Oeste 9 Noroeste 0 -- -- 82
2019-12-07 16:00:00 10.8 3 Noroeste 7 Oeste 0 -- -- 80
2019-12-07 15:00:00 10.3 3 Noroeste 9 Oeste 0 -- -- 80
2019-12-07 14:00:00 9.9 2 Sudoeste 9 Sudoeste 0 -- -- 83
2019-12-07 13:00:00 9 2 Sur 7 Este 0 -- -- 85
2019-12-07 12:00:00 7.8 3 Norte 8 Noroeste 0 -- -- 90
2019-12-07 11:00:00 6.7 0 Calma 9 Nordeste 0 -- -- 92
2019-12-07 10:00:00 5.4 4 Norte 8 Nordeste 0 -- -- 93
2019-12-07 09:00:00 5.8 0 Calma 10 Nordeste 0 -- -- 95
2019-12-07 08:00:00 6 4 Norte 11 Nordeste 0 -- -- 94
2019-12-07 07:00:00 6.1 4 Norte 9 Nordeste 0 -- -- 94
2019-12-07 06:00:00 7.2 2 Nordeste 10 Este 0 -- -- 94
2019-12-07 05:00:00 7.1 4 Sudeste 20 Este 0 -- -- 95
2019-12-07 04:00:00 6.9 6 Sudeste 19 Este 0 -- -- 97
2019-12-07 03:00:00 6.2 4 Nordeste 14 Nordeste 0 -- -- 96
2019-12-07 02:00:00 5.7 5 Nordeste 15 Nordeste 0 -- -- 92
2019-12-07 01:00:00 6.8 3 Este 13 Nordeste 0 -- -- 92
2019-12-07 00:00:00 6.4 5 Nordeste 12 Nordeste 0 -- -- 91
2019-12-06 23:00:00 6.8 3 Este 11 Este 0 -- -- 90
2019-12-06 22:00:00 7.4 2 Nordeste 8 Este 0 -- -- 90
2019-12-06 21:00:00 7.8 0 Calma 9 Nordeste 0 -- -- 89
2019-12-06 20:00:00 8.8 4 Nordeste 10 Nordeste 0 -- -- 87
2019-12-06 19:00:00 9.7 4 Este 13 Sudeste 0 -- -- 83
2019-12-06 18:00:00 10.8 4 Este 20 Este 0 -- -- 78
2019-12-06 17:00:00 11.6 5 Este 18 Nordeste 0 -- -- 75
2019-12-06 16:00:00 11.8 6 Este 21 Nordeste 0 -- -- 76
2019-12-06 15:00:00 11.7 5 Este 19 Nordeste 0 -- -- 75
2019-12-06 14:00:00 11.5 7 Este 19 Este 0 -- -- 75
2019-12-06 13:00:00 11 9 Sudeste 22 Este 0 -- -- 76
2019-12-06 12:00:00 10.9 7 Sudeste 27 Este 0 -- -- 78
2019-12-06 11:00:00 10 5 Este 18 Este 0 -- -- 81
2019-12-06 10:00:00 8.1 4 Nordeste 14 Este 0 -- -- 90
2019-12-06 09:00:00 6.7 3 Nordeste 13 Este 0 -- -- 93
2019-12-06 08:00:00 6.8 3 Este 13 Este 0 -- -- 92
2019-12-06 07:00:00 6.6 4 Nordeste 12 Este 0 -- -- 93
2019-12-06 06:00:00 6.7 4 Este 13 Este 0 -- -- 93
2019-12-06 05:00:00 7 4 Este 14 Este 0 -- -- 93
2019-12-06 04:00:00 7.2 5 Este 16 Nordeste 0 -- -- 93
2019-12-06 03:00:00 7.5 4 Este 16 Este 0 -- -- 93
2019-12-06 02:00:00 8.2 5 Este 14 Este 0 -- -- 93
2019-12-06 01:00:00 8.2 4 Este 14 Norte 0 -- -- 92
2019-12-06 00:00:00 8.6 4 Este 17 Nordeste 0 -- -- 93
2019-12-05 23:00:00 8.4 4 Nordeste 11 Este 0 -- -- 93
2019-12-05 22:00:00 8 3 Sudeste 10 Sudeste 0 -- -- 91
2019-12-05 21:00:00 8.7 3 Sudeste 15 Este 0 -- -- 89
2019-12-05 20:00:00 8.8 0 Calma 13 Este 0 -- -- 89
2019-12-05 19:00:00 9.1 5 Este 12 Este 0 -- -- 86
2019-12-05 18:00:00 10.1 5 Este 14 Este 0 -- -- 83
2019-12-05 17:00:00 11.1 5 Sudeste 17 Este 0 -- -- 78
2019-12-05 16:00:00 11.6 6 Sudeste 21 Nordeste 0 -- -- 73
2019-12-05 15:00:00 11.7 5 Sudeste 19 Este 0 -- -- 74
2019-12-05 14:00:00 11.8 5 Este 22 Sudeste 0 -- -- 75
2019-12-05 13:00:00 11.3 8 Sudeste 21 Este 0 -- -- 75
2019-12-05 12:00:00 9.7 5 Nordeste 20 Nordeste 0 -- -- 78
2019-12-05 11:00:00 8.1 9 Nordeste 24 Nordeste 0 -- -- 84
2019-12-05 10:00:00 5.6 5 Norte 13 Norte 0 -- -- 90
2019-12-05 09:00:00 5.6 3 Norte 11 Noroeste 0 -- -- 90
2019-12-05 08:00:00 6.1 4 Norte 13 Nordeste 0 -- -- 90
2019-12-05 07:00:00 6.3 4 Norte 13 Norte 0 -- -- 91
2019-12-05 06:00:00 6.7 4 Norte 15 Nordeste 0.2 -- -- 89
2019-12-05 05:00:00 7.4 5 Norte 14 Nordeste 0 -- -- 85
2019-12-05 04:00:00 7.5 6 Norte 14 Nordeste 0 -- -- 86
2019-12-05 03:00:00 7.7 6 Nordeste 14 Nordeste 0 -- -- 86
2019-12-05 02:00:00 7.6 5 Norte 12 Nordeste 0 -- -- 89
2019-12-05 01:00:00 7.8 3 Norte 8 Norte 0 -- -- 88
2019-12-05 00:00:00 8 2 Norte 16 Nordeste 0 -- -- 86
2019-12-04 23:00:00 8 6 Nordeste 17 Norte 0 -- -- 85
2019-12-04 22:00:00 7.7 6 Norte 18 Nordeste 0 -- -- 86
2019-12-04 21:00:00 8 6 Nordeste 18 Nordeste 0 -- -- 85
2019-12-04 20:00:00 8.2 5 Norte 17 Nordeste 0 -- -- 86
2019-12-04 19:00:00 8.9 5 Norte 17 Norte 0 -- -- 86
2019-12-04 18:00:00 8.5 7 Norte 15 Norte 0 -- -- 94
2019-12-04 17:00:00 8.4 4 Noroeste 16 Norte 0 -- -- 94
2019-12-04 16:00:00 8.1 6 Noroeste 20 Noroeste 0 -- -- 94
2019-12-04 15:00:00 7.9 6 Noroeste 22 Norte 0 -- -- 94
2019-12-04 14:00:00 7.4 7 Noroeste 18 Noroeste 0 -- -- 97
2019-12-04 13:00:00 6.9 6 Noroeste 19 Noroeste 0.6 -- -- 97
2019-12-04 12:00:00 6.8 6 Noroeste 17 Norte 0.8 -- -- 97
2019-12-04 11:00:00 6.3 6 Noroeste 18 Noroeste 0.2 -- -- 96
2019-12-04 10:00:00 6.2 6 Noroeste 17 Norte 0 -- -- 97
2019-12-04 09:00:00 6 5 Noroeste 15 Noroeste 0.2 -- -- 97
2019-12-04 08:00:00 6 5 Noroeste 16 Norte 0.4 -- -- 96
2019-12-04 07:00:00 6.2 4 Noroeste 16 Norte 0.2 -- -- 94
2019-12-04 06:00:00 6.5 7 Norte 17 Norte 0 -- -- 94
2019-12-04 05:00:00 6.6 5 Norte 16 Norte 0 -- -- 95
2019-12-04 04:00:00 6.7 7 Norte 14 Norte 0 -- -- 94
2019-12-04 03:00:00 6.6 4 Norte 14 Norte 0 -- -- 92
2019-12-04 02:00:00 6.3 4 Norte 11 Noroeste 0 -- -- 92
2019-12-04 01:00:00 6.1 2 Norte 6 Norte 0 -- -- 92
2019-12-04 00:00:00 5.7 0 Calma 4 Norte 0 -- -- 92
2019-12-03 23:00:00 6 0 Calma 9 Este 0 -- -- 89
2019-12-03 22:00:00 6.4 2 Este 12 Sudeste 0 -- -- 88
2019-12-03 21:00:00 7.3 3 Sudeste 15 Este 0 -- -- 86
2019-12-03 20:00:00 7.7 5 Sudeste 14 Este 0 -- -- 84
2019-12-03 19:00:00 8.2 4 Sudeste 14 Sur 0 -- -- 85
2019-12-03 18:00:00 8.4 3 Sudeste 15 Este 0 -- -- 84
2019-12-03 17:00:00 8.7 5 Este 19 Nordeste 0 -- -- 81
2019-12-03 16:00:00 8.9 5 Este 21 Este 0 -- -- 81
2019-12-03 15:00:00 9 7 Este 26 Este 0 -- -- 80
2019-12-03 14:00:00 9.2 6 Sudeste 26 Este 0 -- -- 80
2019-12-03 13:00:00 9.5 8 Sudeste 25 Sudeste 0 -- -- 78
2019-12-03 12:00:00 8.9 8 Sudeste 26 Este 0 -- -- 80
2019-12-03 11:00:00 8.5 5 Este 17 Este 0 -- -- 77
2019-12-03 10:00:00 7.1 6 Nordeste 13 Nordeste 0 -- -- 82
2019-12-03 09:00:00 6 5 Nordeste 13 Norte 0 -- -- 87
2019-12-03 08:00:00 5.8 6 Nordeste 17 Nordeste 0 -- -- 86
2019-12-03 07:00:00 5.6 6 Nordeste 19 Nordeste 0 -- -- 87
2019-12-03 06:00:00 5.5 5 Nordeste 16 Nordeste 0 -- -- 88
2019-12-03 05:00:00 6.2 6 Norte 14 Nordeste 0 -- -- 87
2019-12-03 04:00:00 6 5 Nordeste 14 Norte 0 -- -- 88
2019-12-03 03:00:00 6.2 5 Nordeste 14 Nordeste 0 -- -- 89
2019-12-03 02:00:00 6.5 5 Nordeste 13 Norte 0 -- -- 88
2019-12-03 01:00:00 6.9 4 Norte 10 Nordeste 0 -- -- 88
2019-12-03 00:00:00 7.7 4 Nordeste 9 Nordeste 0 -- -- 87
2019-12-02 23:00:00 8.3 0 Calma 5 Norte 0 -- -- 92
2019-12-02 22:00:00 8.4 0 Calma 9 Sudeste 0 -- -- 91
2019-12-02 21:00:00 8.9 0 Calma 8 Nordeste 0.2 -- -- 90
2019-12-02 20:00:00 9.2 3 Nordeste 11 Nordeste 0.2 -- -- 87
2019-12-02 19:00:00 9.5 4 Nordeste 10 Este 0 -- -- 84
2019-12-02 18:00:00 9.7 3 Este 19 Este 0 -- -- 83
2019-12-02 17:00:00 10.2 9 Este 23 Este 0 -- -- 76
2019-12-02 16:00:00 10.4 8 Este 29 Este 0 -- -- 76
2019-12-02 15:00:00 10.2 8 Este 24 Este 0 -- -- 79
2019-12-02 14:00:00 9.9 8 Este 23 Este 0 -- -- 80
2019-12-02 13:00:00 8.7 5 Nordeste 22 Nordeste 0.4 -- -- 83
2019-12-02 12:00:00 8.6 4 Nordeste 19 Nordeste 0.2 -- -- 85
2019-12-02 11:00:00 8.3 4 Nordeste 17 Nordeste 0 -- -- 87
2019-12-02 10:00:00 7.5 4 Nordeste 15 Este 0 -- -- 90
2019-12-02 09:00:00 7.4 5 Este 18 Este 0 -- -- 91
2019-12-02 08:00:00 7.7 5 Nordeste 17 Este 0 -- -- 91
2019-12-02 07:00:00 7.6 4 Este 28 Este 0.6 -- -- 91
2019-12-02 06:00:00 7.7 9 Este 26 Este 0 -- -- 90
2019-12-02 05:00:00 7.8 7 Nordeste 15 Nordeste 0 -- -- 94
2019-12-02 04:00:00 7.6 5 Nordeste 11 Nordeste 0 -- -- 95
2019-12-02 03:00:00 7.4 4 Nordeste 9 Nordeste 4.2 -- -- 95
2019-12-02 02:00:00 7.5 2 Este 7 Este 2.8 -- -- 94
2019-12-02 01:00:00 7.5 2 Este 12 Este 0.4 -- -- 93
2019-12-02 00:00:00 7.1 2 Este 10 Sudeste 0 -- -- 93
2019-12-01 23:00:00 6.9 2 Sudeste 8 Sur 0 -- -- 92
2019-12-01 22:00:00 7.1 2 Sur 8 Sudeste 0 -- -- 92
2019-12-01 21:00:00 7.5 4 Sur 11 Sudoeste 0 -- -- 92
2019-12-01 20:00:00 8.3 4 Sudoeste 19 Sur 0.4 -- -- 90
2019-12-01 19:00:00 9.7 6 Sur 14 Sur 0.2 -- -- 84
2019-12-01 18:00:00 9.9 4 Sur 10 Sur 0 -- -- 84
2019-12-01 17:00:00 10.1 7 Sur 20 Sudoeste 0.2 -- -- 85
2019-12-01 16:00:00 11 10 Sudoeste 24 Sur 0 -- -- 75
2019-12-01 15:00:00 11.2 6 Sudoeste 23 Sudoeste 0 -- -- 72
2019-12-01 14:00:00 11 9 Sudoeste 21 Sur 0 -- -- 73
2019-12-01 13:00:00 9.9 10 Sudoeste 24 Sudoeste 0 -- -- 77
2019-12-01 12:00:00 9.4 10 Sudoeste 24 Sur 0 -- -- 81
2019-12-01 11:00:00 8.4 10 Sur 20 Sudoeste 0 -- -- 86
2019-12-01 10:00:00 6.9 3 Sudoeste 15 Sudoeste 0 -- -- 96
2019-12-01 09:00:00 5.3 7 Sur 15 Sur 0 -- -- 97
2019-12-01 08:00:00 5.5 3 Sur 9 Sur 0 -- -- 96
2019-12-01 07:00:00 6 3 Sur 8 Sudoeste 0 -- -- 94
2019-12-01 06:00:00 6.8 4 Sudoeste 9 Sudoeste 0 -- -- 92
2019-12-01 05:00:00 7.8 3 Sudoeste 10 Sudoeste 0 -- -- 87
2019-12-01 04:00:00 9.3 3 Sudoeste 10 Noroeste 0 -- -- 91
2019-12-01 03:00:00 9.4 3 Oeste 18 Oeste 0.4 -- -- 90
2019-12-01 02:00:00 9.7 3 Norte 19 Oeste 0.8 -- -- 95
2019-12-01 01:00:00 10.8 4 Sudoeste 17 Oeste 0 -- -- 94
2019-12-01 00:00:00 11 6 Oeste 26 Sur 0 -- -- 89
2019-11-30 23:00:00 11.1 12 Sudoeste 34 Sur 0 -- -- 88
2019-11-30 22:00:00 10.8 12 Sudoeste 26 Sur 0 -- -- 89
2019-11-30 21:00:00 10.6 5 Sudoeste 13 Sudoeste 0 -- -- 88
2019-11-30 20:00:00 11.4 5 Sur 18 Sudoeste 0 -- -- 84
2019-11-30 19:00:00 12 5 Sudoeste 14 Sudoeste 0 -- -- 81
2019-11-30 18:00:00 13 5 Oeste 21 Sudoeste 0 -- -- 76
2019-11-30 17:00:00 14 6 Sudoeste 24 Oeste 0 -- -- 74
2019-11-30 16:00:00 14.6 8 Sudoeste 23 Oeste 0 -- -- 71
2019-11-30 15:00:00 14.2 8 Sudoeste 24 Sur 0 -- -- 78
2019-11-30 14:00:00 13.7 9 Sudoeste 20 Sudoeste 0 -- -- 80
2019-11-30 13:00:00 13.4 6 Sudoeste 22 Sudoeste 0 -- -- 82
2019-11-30 12:00:00 13.7 8 Sudoeste 22 Oeste 0 -- -- 81
2019-11-30 11:00:00 12.9 8 Sudoeste 21 Sudoeste 0 -- -- 86
2019-11-30 10:00:00 10.9 4 Sur 14 Sur 0 -- -- 92
2019-11-30 09:00:00 9.1 5 Sur 9 Sur 0 -- -- 94
2019-11-30 08:00:00 10 5 Sur 10 Sudoeste 0 -- -- 92
2019-11-30 07:00:00 11.1 4 Sudoeste 13 Sudoeste 0 -- -- 91
2019-11-30 06:00:00 11.5 5 Sudoeste 14 Oeste 0 -- -- 88
2019-11-30 05:00:00 11.3 3 Sudoeste 11 Oeste 0 -- -- 90
2019-11-30 04:00:00 11.4 3 Sur 7 Sudoeste 0 -- -- 90
2019-11-30 03:00:00 11.3 0 Calma 9 Sudoeste 0 -- -- 91
2019-11-30 02:00:00 11.3 3 Sur 9 Sudoeste 0 -- -- 91
2019-11-30 01:00:00 11.5 3 Sudoeste 9 Sur 0 -- -- 90
2019-11-30 00:00:00 11.5 2 Sudoeste 8 Sur 0 -- -- 90
2019-11-29 23:00:00 11.4 0 Calma 8 Sudeste 0 -- -- 91
2019-11-29 22:00:00 11.7 3 Sur 10 Sur 0 -- -- 90
2019-11-29 21:00:00 11.9 4 Sur 15 Oeste 0 -- -- 89
2019-11-29 20:00:00 12.2 4 Sudoeste 12 Sudoeste 0 -- -- 89
2019-11-29 19:00:00 12.5 4 Sudoeste 13 Sudoeste 0 -- -- 89
2019-11-29 18:00:00 12.8 5 Sudoeste 18 Sudoeste 0 -- -- 88
2019-11-29 17:00:00 13.1 5 Sudoeste 19 Oeste 0 -- -- 88
2019-11-29 16:00:00 13.3 7 Sudoeste 21 Sudoeste 0 -- -- 87
2019-11-29 15:00:00 13.3 9 Sudoeste 27 Oeste 0 -- -- 87
2019-11-29 14:00:00 12.7 9 Sudoeste 21 Oeste 0 -- -- 88
2019-11-29 13:00:00 12.4 8 Sudoeste 22 Sudoeste 0 -- -- 88
2019-11-29 12:00:00 12.4 8 Sudoeste 21 Sudoeste 0 -- -- 88
2019-11-29 11:00:00 12 8 Sudoeste 27 Sudoeste 0 -- -- 89
2019-11-29 10:00:00 11.2 8 Sudoeste 20 Oeste 0 -- -- 92
2019-11-29 09:00:00 10.5 6 Sudoeste 17 Oeste 0 -- -- 94
2019-11-29 08:00:00 10.1 6 Sudoeste 17 Sur 0 -- -- 93
2019-11-29 07:00:00 9.9 6 Sudoeste 19 Sudoeste 0 -- -- 92
2019-11-29 06:00:00 9.8 6 Sudoeste 19 Sudoeste 0 -- -- 92
2019-11-29 05:00:00 9.2 7 Sudoeste 16 Oeste 0 -- -- 93
2019-11-29 04:00:00 8.7 6 Sudoeste 19 Sur 0 -- -- 93
2019-11-29 03:00:00 8.8 7 Sudoeste 16 Sur 0 -- -- 93
2019-11-29 02:00:00 8.6 5 Sudoeste 14 Sur 0 -- -- 93
2019-11-29 01:00:00 9 7 Sudoeste 18 Sur 0 -- -- 92
2019-11-29 00:00:00 8.7 4 Sur 14 Sur 0 -- -- 93
2019-11-28 23:00:00 9.2 5 Sudoeste 17 Sudoeste 0 -- -- 92
2019-11-28 22:00:00 9.8 7 Sudoeste 17 Sudoeste 0 -- -- 91
2019-11-28 21:00:00 10 5 Sudoeste 16 Sudoeste 0 -- -- 91
2019-11-28 20:00:00 10.4 6 Sudoeste 16 Sudoeste 0 -- -- 92
2019-11-28 19:00:00 10.4 5 Sur 16 Sudoeste 0 -- -- 93
2019-11-28 18:00:00 10.4 8 Sur 23 Sudoeste 0 -- -- 92
2019-11-28 17:00:00 11 5 Sudoeste 22 Oeste 0 -- -- 88
2019-11-28 16:00:00 11 8 Sudoeste 21 Sur 0 -- -- 89
2019-11-28 15:00:00 11.2 9 Sudoeste 24 Sur 0 -- -- 86
2019-11-28 14:00:00 10.6 7 Sudoeste 19 Oeste 0 -- -- 88
2019-11-28 13:00:00 10.7 7 Sudoeste 21 Oeste 0 -- -- 86
2019-11-28 12:00:00 10.3 9 Sudoeste 21 Sudoeste 0 -- -- 88
2019-11-28 11:00:00 9.4 8 Sudoeste 15 Sudoeste 0 -- -- 95
2019-11-28 10:00:00 7.7 3 Sudoeste 9 Sudoeste 0 -- -- 99
2019-11-28 09:00:00 6 3 Sudoeste 10 Sudoeste 0 -- -- 98
2019-11-28 08:00:00 5.7 4 Sudoeste 13 Sudoeste 0 -- -- 98
2019-11-28 07:00:00 5.7 3 Sudoeste 10 Oeste 0 -- -- 97
2019-11-28 06:00:00 5.5 3 Sudoeste 12 Sudoeste 0 -- -- 96
2019-11-28 05:00:00 5.7 4 Sur 10 Sur 0 -- -- 95
2019-11-28 04:00:00 6 5 Sudoeste 11 Sur 0 -- -- 95
2019-11-28 03:00:00 6.1 4 Sudoeste 13 Sudoeste 0 -- -- 94
2019-11-28 02:00:00 6.7 4 Sudoeste 13 Sudoeste 0 -- -- 93
2019-11-28 01:00:00 7.1 4 Sudoeste 13 Sur 0 -- -- 92
2019-11-28 00:00:00 7.4 5 Sur 11 Sur 0 -- -- 90
2019-11-27 23:00:00 8.6 4 Sudoeste 13 Sudoeste 0 -- -- 85
2019-11-27 22:00:00 9.3 5 Sudoeste 12 Sudoeste 0 -- -- 82
2019-11-27 21:00:00 9.7 4 Sur 16 Oeste 0 -- -- 80
2019-11-27 20:00:00 10.1 5 Oeste 15 Oeste 0 -- -- 78
2019-11-27 19:00:00 11.2 5 Oeste 18 Oeste 0 -- -- 70
2019-11-27 18:00:00 11.9 6 Oeste 18 Noroeste 0 -- -- 67
2019-11-27 17:00:00 13.1 11 Oeste 28 Oeste 0 -- -- 59
2019-11-27 16:00:00 13.7 8 Oeste 29 Oeste 0 -- -- 61
2019-11-27 15:00:00 13.9 12 Oeste 27 Sudoeste 0 -- -- 59
2019-11-27 14:00:00 13.6 11 Oeste 27 Norte 0 -- -- 62
2019-11-27 06:00:00 -- -- -- -- -- -- -- -- --
2019-11-27 05:00:00 -- -- -- -- -- -- -- -- --
2019-11-27 04:00:00 -- -- -- -- -- -- -- -- --
2019-11-27 03:00:00 -- -- -- -- -- -- -- -- --
2019-11-27 02:00:00 11.7 11 Sudoeste 23 Oeste 0 -- -- 95
2019-11-27 01:00:00 12 9 Sudoeste 24 Sudoeste 0.2 -- -- 96
2019-11-27 00:00:00 12 8 Sur 16 Sudoeste 0 -- -- 95
2019-11-26 23:00:00 12.5 6 Sudoeste 18 Sudoeste 0 -- -- 92
2019-11-26 22:00:00 12.8 6 Sudoeste 26 Sudoeste 0 -- -- 90
2019-11-26 21:00:00 12.7 8 Sudoeste 24 Sudoeste 0 -- -- 91
2019-11-26 20:00:00 13 8 Sudoeste 23 Sudoeste 0.2 -- -- 91
2019-11-26 19:00:00 13.2 6 Sudoeste 19 Sudoeste 0 -- -- 92
2019-11-26 18:00:00 13.3 5 Sudoeste 22 Sudoeste 0 -- -- 94
2019-11-26 17:00:00 13.4 9 Sudoeste 23 Sur 0.2 -- -- 96
2019-11-26 16:00:00 13.6 4 Sudoeste 13 Sur 0 -- -- 93
2019-11-26 15:00:00 13.8 6 Sudoeste 19 Sudoeste 0 -- -- 89
2019-11-26 14:00:00 13.9 9 Sudoeste 23 Sudoeste 0 -- -- 86
2019-11-26 13:00:00 13 6 Sudoeste 22 Sudoeste 0 -- -- 89
2019-11-26 12:00:00 12.9 9 Sur 23 Sudoeste 0 -- -- 87
2019-11-26 11:00:00 12.3 8 Sudoeste 24 Sudoeste 0 -- -- 90
2019-11-26 10:00:00 11.1 8 Sudoeste 14 Sudoeste 0 -- -- 96
2019-11-26 09:00:00 9.9 5 Sur 12 Sur 0 -- -- 97
2019-11-26 08:00:00 9.7 3 Sudoeste 10 Oeste 0 -- -- 96
2019-11-26 07:00:00 10.2 4 Sur 9 Sur 0 -- -- 94
2019-11-26 06:00:00 10.6 3 Sudoeste 6 Sudoeste 0 -- -- 92
2019-11-26 05:00:00 10.6 2 Sudoeste 12 Sudoeste 0 -- -- 95
2019-11-26 04:00:00 10.9 5 Sudoeste 14 Oeste 0 -- -- 94
2019-11-26 03:00:00 10.9 3 Sudoeste 15 Oeste 0 -- -- 94
2019-11-26 02:00:00 10.8 4 Sudoeste 15 Sudoeste 0 -- -- 94
2019-11-26 01:00:00 11 6 Sudoeste 17 Sudoeste 0 -- -- 93
2019-11-26 00:00:00 11.1 5 Sudoeste 19 Oeste 0 -- -- 93
2019-11-25 23:00:00 11.4 6 Sudoeste 17 Sudoeste 0 -- -- 92
2019-11-25 22:00:00 11.6 6 Sudoeste 16 Oeste 0 -- -- 91
2019-11-25 21:00:00 11.8 3 Sudoeste 8 Oeste 0 -- -- 88
2019-11-25 20:00:00 12.6 3 Sudoeste 8 Noroeste 0 -- -- 83
2019-11-25 19:00:00 13.4 3 Oeste 11 Oeste 0 -- -- 78
2019-11-25 18:00:00 14.1 4 Oeste 16 Oeste 0 -- -- 73
2019-11-25 17:00:00 14.9 5 Oeste 25 Oeste 0 -- -- 70
2019-11-25 16:00:00 15.7 10 Oeste 31 Oeste 0 -- -- 67
2019-11-25 15:00:00 14.5 8 Oeste 23 Sudoeste 0 -- -- 84
2019-11-25 14:00:00 13.1 9 Sudoeste 24 Oeste 0 -- -- 92
2019-11-25 13:00:00 12.7 9 Sudoeste 26 Oeste 0 -- -- 91
2019-11-25 12:00:00 11.9 9 Sudoeste 23 Oeste 0 -- -- 94
2019-11-25 11:00:00 10.6 6 Sudoeste 22 Sudoeste 0 -- -- 97
2019-11-25 10:00:00 9.8 8 Sudoeste 25 Sudoeste 0 -- -- 98
2019-11-25 09:00:00 8.9 6 Sudoeste 17 Sudoeste 0 -- -- 97
2019-11-25 08:00:00 8.6 6 Sudoeste 16 Sur 0 -- -- 97
2019-11-25 07:00:00 8.5 5 Sudoeste 17 Sudoeste 0 -- -- 96
2019-11-25 06:00:00 8.3 7 Sudoeste 21 Sudoeste 0 -- -- 96
2019-11-25 05:00:00 8.5 7 Sudoeste 19 Sudoeste 0 -- -- 95
2019-11-25 04:00:00 8.2 5 Sudoeste 17 Sur 0.2 -- -- 93
2019-11-25 03:00:00 8.3 6 Sudoeste 19 Sudoeste 0 -- -- 90
2019-11-25 02:00:00 8.3 6 Sudoeste 19 Sur 0 -- -- 90
2019-11-25 01:00:00 7.7 5 Sudoeste 14 Sudoeste 0 -- -- 91
2019-11-25 00:00:00 7.2 4 Sudoeste 14 Sudoeste 0 -- -- 92
2019-11-24 23:00:00 6.7 5 Sur 12 Sudoeste 0 -- -- 91
2019-11-24 22:00:00 6.6 4 Sudoeste 14 Oeste 0 -- -- 89
2019-11-24 21:00:00 6.4 4 Sudoeste 10 Oeste 0 -- -- 87
2019-11-24 20:00:00 7 3 Sudoeste 14 Sudoeste 0 -- -- 85
2019-11-24 19:00:00 7.9 4 Sudoeste 13 Sudoeste 0 -- -- 81
2019-11-24 18:00:00 9.1 4 Sudoeste 16 Sudoeste 0 -- -- 75
2019-11-24 17:00:00 10.1 6 Sudoeste 17 Sudoeste 0 -- -- 68
2019-11-24 16:00:00 10.5 6 Sudoeste 17 Sudoeste 0 -- -- 68
2019-11-24 15:00:00 10.5 8 Sudoeste 17 Sur 0 -- -- 69
2019-11-24 14:00:00 10.5 5 Sudoeste 13 Sur 0 -- -- 69
2019-11-24 13:00:00 10 3 Sudoeste 14 Oeste 0 -- -- 66
2019-11-24 12:00:00 9.2 3 Oeste 12 Oeste 0 -- -- 71
2019-11-24 11:00:00 7.1 5 Sudoeste 14 Oeste 0 -- -- 85
2019-11-24 10:00:00 4.6 5 Sudoeste 13 Sudoeste 0 -- -- 94
2019-11-24 09:00:00 1.7 3 Sur 11 Sur 0 -- -- 94
2019-11-24 08:00:00 2.2 0 Calma 8 Oeste 0 -- -- 91
2019-11-24 07:00:00 2.8 0 Calma 6 Oeste 0 -- -- 89
2019-11-24 06:00:00 3.5 0 Calma 8 Norte 0 -- -- 87
2019-11-24 05:00:00 3.9 0 Calma 9 Noroeste 0 -- -- 86
2019-11-24 04:00:00 3.9 2 Sur 10 Oeste 0 -- -- 85
2019-11-24 03:00:00 4.9 6 Oeste 14 Noroeste 0 -- -- 81
2019-11-24 02:00:00 4.7 2 Noroeste 10 Sudoeste 0 -- -- 82
2019-11-24 01:00:00 4.5 3 Oeste 9 Oeste 0 -- -- 83
2019-11-24 00:00:00 5.3 2 Sudoeste 9 Sur 0 -- -- 79
2019-11-23 23:00:00 6 3 Sur 13 Oeste 0 -- -- 75
2019-11-23 22:00:00 6.4 4 Sur 15 Noroeste 0 -- -- 75
2019-11-23 21:00:00 7.3 4 Noroeste 14 Oeste 0 -- -- 71
2019-11-23 20:00:00 8 4 Sudoeste 14 Noroeste 0 -- -- 71
2019-11-23 19:00:00 9.6 3 Oeste 17 Oeste 0 -- -- 65
2019-11-23 18:00:00 10.5 5 Noroeste 23 Noroeste 0 -- -- 61
2019-11-23 17:00:00 11.3 8 Noroeste 23 Noroeste 0 -- -- 56
2019-11-23 16:00:00 12.1 8 Noroeste 27 Oeste 0 -- -- 50
2019-11-23 15:00:00 12.1 6 Noroeste 25 Noroeste 0 -- -- 47
2019-11-23 14:00:00 11.6 8 Noroeste 27 Noroeste 0 -- -- 59
2019-11-23 13:00:00 11.3 9 Noroeste 33 Noroeste 0 -- -- 62
2019-11-23 12:00:00 10 10 Oeste 25 Noroeste 0 -- -- 66
2019-11-23 11:00:00 8.6 7 Oeste 31 Oeste 0 -- -- 70
2019-11-23 10:00:00 7.6 10 Oeste 25 Oeste 0 -- -- 77
2019-11-23 09:00:00 6.7 8 Oeste 31 Oeste 0 -- -- 80
2019-11-23 08:00:00 7.1 8 Oeste 26 Oeste 0 -- -- 80
2019-11-23 07:00:00 7.2 6 Oeste 23 Oeste 0 -- -- 80
2019-11-23 06:00:00 7.3 8 Oeste 30 Oeste 0 -- -- 79
2019-11-23 05:00:00 7.6 9 Oeste 31 Oeste 0 -- -- 83
2019-11-23 04:00:00 8 5 Oeste 25 Oeste 0 -- -- 86
2019-11-23 03:00:00 8.2 8 Oeste 28 Sudoeste 0.2 -- -- 90
2019-11-23 02:00:00 8.5 6 Sudoeste 23 Sudoeste 0.6 -- -- 94
2019-11-23 01:00:00 8.9 9 Sudoeste 25 Oeste 0 -- -- 90
2019-11-23 00:00:00 9.4 5 Sudoeste 30 Oeste 0 -- -- 93
2019-11-22 23:00:00 9.8 8 Sudoeste 26 Sur 0 -- -- 92
2019-11-22 22:00:00 9.9 8 Sudoeste 24 Oeste 0 -- -- 92
2019-11-22 21:00:00 10.2 4 Sudoeste 21 Sudoeste 0 -- -- 90
2019-11-22 20:00:00 10.6 6 Sudoeste 22 Oeste 0 -- -- 95
2019-11-22 19:00:00 11.4 9 Sudoeste 23 Sur 0 -- -- 95
2019-11-22 18:00:00 12.1 10 Sudoeste 35 Sudoeste 1 -- -- 96
2019-11-22 17:00:00 12.1 9 Sur 29 Sur 0.8 -- -- 97
2019-11-22 16:00:00 11.9 12 Sur 33 Sur 4.2 -- -- 97
2019-11-22 15:00:00 11.9 16 Sur 33 Sudoeste 1.6 -- -- 96
2019-11-22 14:00:00 11.3 18 Sur 33 Sur 1.2 -- -- 95
2019-11-22 13:00:00 11.4 16 Sur 31 Sudoeste 0 -- -- 91
2019-11-22 12:00:00 11.3 15 Sur 31 Sudoeste 0 -- -- 90
2019-11-22 11:00:00 10.5 14 Sur 31 Sur 0 -- -- 91
2019-11-22 10:00:00 9.1 7 Sur 15 Sur 0 -- -- 96
2019-11-22 09:00:00 8.7 8 Sur 19 Sur 0 -- -- 98
2019-11-22 08:00:00 8.2 5 Sur 12 Sur 0 -- -- 98
2019-11-22 07:00:00 8.1 4 Sur 10 Sur 0 -- -- 99
2019-11-22 06:00:00 8 5 Sur 15 Sur 0.2 -- -- 99
2019-11-22 05:00:00 7.8 0 Calma 8 Sur 0 -- -- 99
2019-11-22 04:00:00 7.8 3 Sur 9 Sudoeste 0 -- -- 98
2019-11-22 03:00:00 7.8 4 Sur 12 Sur 0 -- -- 98
2019-11-22 02:00:00 7.6 3 Sur 8 Sur 0.2 -- -- 98
2019-11-22 01:00:00 7.6 2 Sur 4 Sur 0 -- -- 98
2019-11-22 00:00:00 7.5 3 Sur 6 Sudoeste 0 -- -- 97
2019-11-21 23:00:00 7.4 2 Sur 4 Sudoeste 0 -- -- 97
2019-11-21 22:00:00 8 0 Calma 8 Sur 0 -- -- 96
2019-11-21 21:00:00 8.7 0 Calma 9 Sudoeste 0 -- -- 96
2019-11-21 20:00:00 8.9 4 Sur 10 Sur 0 -- -- 95
2019-11-21 19:00:00 9.1 3 Sudoeste 9 Sur 0 -- -- 94
2019-11-21 18:00:00 9.7 3 Sudoeste 10 Oeste 0.2 -- -- 93
2019-11-21 17:00:00 10.1 2 Oeste 21 Oeste 0.4 -- -- 92
2019-11-21 16:00:00 10.5 3 Sudoeste 13 Sur 0.2 -- -- 93
2019-11-21 15:00:00 9.8 4 Sudoeste 13 Sudoeste 1.2 -- -- 93
2019-11-21 14:00:00 9.9 5 Sur 17 Sur 0.2 -- -- 90
2019-11-21 13:00:00 9.7 5 Sudoeste 13 Sur 0 -- -- 90
2019-11-21 12:00:00 9.4 6 Sudoeste 17 Sudoeste 0 -- -- 90
2019-11-21 11:00:00 8.9 5 Sudoeste 14 Sudoeste 0 -- -- 93
2019-11-21 10:00:00 7.9 6 Sudoeste 15 Sur 0 -- -- 96
2019-11-21 09:00:00 6.8 5 Sur 12 Sudoeste 0 -- -- 97
2019-11-21 08:00:00 6.4 4 Sur 13 Sur 0 -- -- 97
2019-11-21 07:00:00 6.1 6 Sur 10 Sur 0 -- -- 97
2019-11-21 06:00:00 6.3 3 Sur 10 Sur 0 -- -- 97
2019-11-21 05:00:00 6.5 4 Sur 12 Sudoeste 0 -- -- 97
2019-11-21 04:00:00 6.7 3 Sudoeste 13 Sudoeste 0.4 -- -- 97
2019-11-21 03:00:00 6.7 4 Sur 10 Sudoeste 0 -- -- 96
2019-11-21 02:00:00 6.4 3 Sur 10 Sudoeste 0 -- -- 96
2019-11-21 01:00:00 6.3 4 Sur 12 Sur 0 -- -- 96
2019-11-21 00:00:00 6.1 5 Sur 14 Sudoeste 0 -- -- 95
2019-11-20 23:00:00 6 3 Sudoeste 11 Sudoeste 0 -- -- 94
2019-11-20 22:00:00 6.1 5 Sudoeste 14 Sur 0 -- -- 94
2019-11-20 21:00:00 6 5 Sur 12 Sudoeste 0 -- -- 93
2019-11-20 20:00:00 6.1 5 Sur 15 Sudoeste 0.2 -- -- 93
2019-11-20 19:00:00 6.3 7 Sur 17 Sudoeste 0.2 -- -- 91
2019-11-20 18:00:00 6.7 5 Sur 18 Sur 0.8 -- -- 90
2019-11-20 17:00:00 7.4 5 Sur 11 Sudoeste 0.2 -- -- 85
2019-11-20 16:00:00 7.8 3 Sudoeste 14 Sudoeste 0.6 -- -- 81
2019-11-20 15:00:00 8.9 3 Sudoeste 17 Oeste 0 -- -- 74
2019-11-20 14:00:00 9.8 6 Sudoeste 19 Sudoeste 0 -- -- 65
2019-11-20 13:00:00 10.2 6 Sudoeste 17 Sudoeste 0 -- -- 68
2019-11-20 12:00:00 8.6 5 Sur 12 Sur 0 -- -- 74
2019-11-20 11:00:00 7.6 9 Sur 14 Sur 0 -- -- 76
2019-11-20 10:00:00 4.2 3 Sur 9 Sudeste 0 -- -- 88
2019-11-20 09:00:00 3.1 3 Sur 8 Sudeste 0 -- -- 92
2019-11-20 08:00:00 2.8 3 Sudeste 6 Sudeste 0 -- -- 93
2019-11-20 07:00:00 2.4 0 Calma 6 Sudeste 0 -- -- 93
2019-11-20 06:00:00 2.5 3 Sudeste 5 Sudeste 0 -- -- 93
2019-11-20 05:00:00 2.8 2 Sudeste 5 Sur 0 -- -- 92
2019-11-20 04:00:00 3.3 2 Sur 5 Sudeste 0 -- -- 91
2019-11-20 03:00:00 3.9 2 Sur 5 Sur 0 -- -- 90
2019-11-20 02:00:00 4.4 2 Sur 6 Sudeste 0 -- -- 90
2019-11-20 01:00:00 4.8 0 Calma 5 Sur 0 -- -- 88
2019-11-20 00:00:00 5.1 2 Sudeste 5 Sur 0 -- -- 87
2019-11-19 23:00:00 5.5 2 Sur 5 Sur 0 -- -- 86
2019-11-19 22:00:00 5.5 0 Calma 4 Sudoeste 0 -- -- 85
2019-11-19 21:00:00 6 2 Sur 5 Sur 0 -- -- 84
2019-11-19 20:00:00 6.4 3 Sur 5 Sudoeste 0 -- -- 82
2019-11-19 19:00:00 7.2 3 Sudoeste 6 Sur 0 -- -- 78
2019-11-19 18:00:00 8.5 2 Sudoeste 10 Sudeste 0 -- -- 70
2019-11-19 17:00:00 9.7 5 Sudoeste 13 Sur 0 -- -- 61
2019-11-19 16:00:00 9.8 4 Sudoeste 16 Sudoeste 0 -- -- 59
2019-11-19 15:00:00 10.4 6 Sudoeste 15 Sudoeste 0 -- -- 57
2019-11-19 14:00:00 9.8 5 Oeste 13 Oeste 0 -- -- 60
2019-11-19 13:00:00 9.1 4 Sudoeste 10 Sur 0 -- -- 66
2019-11-19 12:00:00 7.8 4 Sur 8 Sur 0 -- -- 71
2019-11-19 11:00:00 5.1 3 Sur 7 Oeste 0 -- -- 81
2019-11-19 10:00:00 2.9 3 Sur 5 Sur 0 -- -- 89
2019-11-19 09:00:00 0.7 0 Calma 5 Sur 0 -- -- 94
2019-11-19 08:00:00 0.2 0 Calma 3 Sur 0 -- -- 93
2019-11-19 07:00:00 0.5 0 Calma 4 Sur 0 -- -- 93
2019-11-19 06:00:00 0.5 0 Calma 3 Sur 0 -- -- 92
2019-11-19 05:00:00 1.1 0 Calma 3 Sur 0 -- -- 91
2019-11-19 04:00:00 1.2 0 Calma 6 Sudoeste 0 -- -- 90
2019-11-19 03:00:00 1.8 2 Sur 5 Sur 0 -- -- 88
2019-11-19 02:00:00 2.4 2 Norte 6 Noroeste 0 -- -- 85
2019-11-19 01:00:00 2.8 0 Calma 5 Norte 0 -- -- 85
2019-11-19 00:00:00 3.3 0 Calma 5 Noroeste 0 -- -- 82
2019-11-18 23:00:00 4.1 0 Calma 6 Noroeste 0 -- -- 81
2019-11-18 22:00:00 4.4 0 Calma 7 Norte 0 -- -- 80
2019-11-18 21:00:00 5 2 Sudoeste 6 Sudoeste 0 -- -- 79
2019-11-18 20:00:00 6.2 0 Calma 9 Norte 0 -- -- 74
2019-11-18 19:00:00 7.4 4 Norte 10 Noroeste 0 -- -- 70
2019-11-18 18:00:00 8.8 4 Noroeste 14 Norte 0 -- -- 65
2019-11-18 17:00:00 10.1 6 Noroeste 30 Norte 0 -- -- 61
2019-11-18 16:00:00 10.7 9 Norte 28 Noroeste 0 -- -- 54
2019-11-18 15:00:00 10.3 8 Noroeste 33 Norte 0 -- -- 57
2019-11-18 14:00:00 10.5 14 Norte 38 Norte 0 -- -- 56
2019-11-18 13:00:00 9.3 10 Norte 25 Norte 0 -- -- 67
2019-11-18 12:00:00 8.5 9 Norte 25 Nordeste 0 -- -- 68
2019-11-18 11:00:00 7.3 9 Noroeste 24 Norte 0 -- -- 75
2019-11-18 10:00:00 5.2 9 Norte 18 Norte 0 -- -- 87
2019-11-18 09:00:00 2.8 3 Noroeste 10 Noroeste 0 -- -- 93
2019-11-18 08:00:00 2.7 3 Noroeste 15 Noroeste 0 -- -- 92
2019-11-18 07:00:00 2.9 3 Noroeste 14 Noroeste 0 -- -- 92
2019-11-18 06:00:00 3.5 5 Norte 18 Noroeste 0 -- -- 91
2019-11-18 05:00:00 3.7 4 Noroeste 13 Norte 0 -- -- 91
2019-11-18 04:00:00 4 5 Norte 10 Noroeste 0 -- -- 93
2019-11-18 03:00:00 4.7 3 Noroeste 11 Norte 0 -- -- 95
2019-11-18 02:00:00 5.6 2 Norte 8 Noroeste 0 -- -- 97
2019-11-18 01:00:00 6.4 2 Oeste 6 Oeste 0 -- -- 96
2019-11-18 00:00:00 6.9 0 Calma 7 Nordeste 0.8 -- -- 96
2019-11-17 23:00:00 7 3 Nordeste 30 Norte 2.4 -- -- 97
2019-11-17 22:00:00 7.8 5 Sudoeste 17 Oeste 2.8 -- -- 97
2019-11-17 21:00:00 7.7 6 Sudoeste 18 Sudoeste 2.4 -- -- 97
2019-11-17 20:00:00 7.6 5 Sudoeste 14 Sur 2.2 -- -- 96
2019-11-17 19:00:00 7.6 5 Sudoeste 19 Sudoeste 0.2 -- -- 93
2019-11-17 18:00:00 7.6 6 Sudoeste 29 Sudoeste 0 -- -- 90
2019-11-17 17:00:00 7.7 9 Sudoeste 27 Sudoeste 0 -- -- 89
2019-11-17 16:00:00 7 7 Sudoeste 22 Oeste 0.2 -- -- 91
2019-11-17 15:00:00 6.8 7 Sudoeste 25 Sur 0.2 -- -- 90
2019-11-17 14:00:00 6.4 10 Sudoeste 33 Sudoeste 0 -- -- 85
2019-11-17 13:00:00 6.4 11 Sudoeste 28 Sudoeste 0 -- -- 84
2019-11-17 12:00:00 5.8 10 Sudoeste 27 Sudoeste 0 -- -- 82
2019-11-17 11:00:00 5.9 9 Sudoeste 24 Sur 0 -- -- 79
2019-11-17 10:00:00 3.1 7 Sudoeste 19 Sur 0 -- -- 88
2019-11-17 09:00:00 0.7 5 Sudoeste 12 Sudoeste 0 -- -- 91
2019-11-17 08:00:00 -0.1 6 Sur 12 Sur 0 -- -- 89
2019-11-17 07:00:00 -0.1 4 Sur 9 Sur 0 -- -- 88
2019-11-17 06:00:00 -0.1 0 Calma 6 Sur 0 -- -- 87
2019-11-17 05:00:00 0.2 2 Sudoeste 6 Sur 0 -- -- 86
2019-11-17 04:00:00 0.5 0 Calma 7 Sur 0 -- -- 85
2019-11-17 03:00:00 0.9 2 Sur 6 Sur 0 -- -- 84
2019-11-17 02:00:00 1.5 2 Sur 4 Sur 0 -- -- 82
2019-11-17 01:00:00 2 0 Calma 4 Noroeste 0 -- -- 80
2019-11-17 00:00:00 2.3 0 Calma 6 Sudoeste 0 -- -- 79
2019-11-16 23:00:00 2.8 0 Calma 9 Sudoeste 0 -- -- 78
2019-11-16 22:00:00 3.6 3 Sur 7 Sur 0 -- -- 74
2019-11-16 21:00:00 4.6 2 Sudoeste 7 Sur 0 -- -- 67
2019-11-16 20:00:00 5.5 0 Calma 4 Sudoeste 0 -- -- 63
2019-11-16 19:00:00 7 0 Calma 15 Norte 0 -- -- 58
2019-11-16 18:00:00 8.7 5 Norte 17 Noroeste 0 -- -- 50
2019-11-16 17:00:00 9.7 5 Noroeste 16 Oeste 0 -- -- 48
2019-11-16 16:00:00 10 5 Noroeste 19 Norte 0 -- -- 47
2019-11-16 15:00:00 9.8 7 Noroeste 22 Norte 0 -- -- 48
2019-11-16 14:00:00 9.4 5 Noroeste 19 Noroeste 0 -- -- 51
2019-11-16 13:00:00 8.5 8 Noroeste 20 Noroeste 0 -- -- 56
2019-11-16 12:00:00 7.9 7 Norte 22 Noroeste 0 -- -- 58
2019-11-16 11:00:00 6.5 5 Noroeste 16 Norte 0 -- -- 66
2019-11-16 10:00:00 4.1 3 Noroeste 10 Noroeste 0 -- -- 78
2019-11-16 09:00:00 1.3 3 Noroeste 11 Noroeste 0 -- -- 85
2019-11-16 08:00:00 0.8 2 Noroeste 9 Oeste 0 -- -- 85
2019-11-16 07:00:00 1.3 0 Calma 6 Norte 0 -- -- 84
2019-11-16 06:00:00 1.5 2 Noroeste 10 Noroeste 0 -- -- 82
2019-11-16 05:00:00 2.2 0 Calma 11 Noroeste 0 -- -- 77
2019-11-16 04:00:00 3 4 Noroeste 13 Noroeste 0 -- -- 74
2019-11-16 03:00:00 2.9 2 Noroeste 8 Oeste 0 -- -- 75
2019-11-16 02:00:00 3.8 2 Noroeste 6 Noroeste 0 -- -- 74
2019-11-16 01:00:00 4.6 0 Calma 9 Noroeste 0 -- -- 74
2019-11-16 00:00:00 5.3 0 Calma 7 Noroeste 0 -- -- 72
2019-11-15 23:00:00 5.2 0 Calma 4 Sur 0 -- -- 74
2019-11-15 22:00:00 5.4 2 Oeste 5 Oeste 0 -- -- 72
2019-11-15 21:00:00 5.2 0 Calma 5 Oeste 0 -- -- 72
2019-11-15 20:00:00 5.8 2 Sudoeste 4 Sudoeste 0 -- -- 67
2019-11-15 19:00:00 6.7 0 Calma 6 Noroeste 0 -- -- 63
2019-11-15 18:00:00 7.2 2 Noroeste 14 Noroeste 0 -- -- 63
2019-11-15 17:00:00 8.3 6 Noroeste 19 Noroeste 0 -- -- 56
2019-11-15 16:00:00 9.2 8 Noroeste 24 Noroeste 0 -- -- 53
2019-11-15 15:00:00 8.8 6 Noroeste 23 Noroeste 0 -- -- 56
2019-11-15 14:00:00 9 6 Noroeste 19 Noroeste 0 -- -- 57
2019-11-15 13:00:00 8.2 8 Noroeste 24 Oeste 0 -- -- 59
2019-11-15 12:00:00 8.1 8 Noroeste 21 Noroeste 0 -- -- 59
2019-11-15 11:00:00 7.6 5 Noroeste 17 Oeste 0 -- -- 62
2019-11-15 10:00:00 5.1 4 Oeste 12 Sudoeste 0 -- -- 80
2019-11-15 09:00:00 2.5 4 Sudoeste 14 Oeste 0 -- -- 89
2019-11-15 08:00:00 2.8 5 Sudoeste 15 Oeste 0 -- -- 87
2019-11-15 07:00:00 3.8 3 Sudoeste 15 Sur 0 -- -- 85
2019-11-15 06:00:00 4.7 4 Sur 9 Sur 0 -- -- 83
2019-11-15 05:00:00 5 4 Sur 10 Oeste 0 -- -- 82
2019-11-15 04:00:00 5.5 4 Oeste 14 Oeste 0 -- -- 80
2019-11-15 03:00:00 5.9 4 Oeste 14 Sudoeste 0 -- -- 79
2019-11-15 02:00:00 6.1 4 Sudoeste 17 Oeste 0 -- -- 80
2019-11-15 01:00:00 6.6 6 Oeste 22 Sudoeste 0 -- -- 75
2019-11-15 00:00:00 6.8 7 Oeste 22 Oeste 0 -- -- 73
2019-11-14 23:00:00 6.9 8 Oeste 22 Sudoeste 0 -- -- 76
2019-11-14 22:00:00 6.7 6 Oeste 18 Oeste 0 -- -- 77
2019-11-14 21:00:00 6.7 6 Oeste 24 Sudoeste 0 -- -- 73
2019-11-14 20:00:00 7.1 9 Oeste 33 Oeste 0 -- -- 70
2019-11-14 19:00:00 7.5 12 Oeste 32 Sudoeste 0 -- -- 65
2019-11-14 18:00:00 8.5 10 Oeste 31 Sudoeste 0 -- -- 63
2019-11-14 17:00:00 9.5 10 Oeste 39 Noroeste 0 -- -- 57
2019-11-14 16:00:00 9.9 7 Noroeste 34 Norte 0 -- -- 55
2019-11-14 15:00:00 10.4 10 Oeste 23 Oeste 0 -- -- 61
2019-11-14 14:00:00 8.9 9 Sudoeste 21 Sudoeste 0 -- -- 81
2019-11-14 13:00:00 5.9 5 Oeste 11 Oeste 0 -- -- 90
2019-11-14 12:00:00 4.7 4 Oeste 15 Norte 0.4 -- -- 91
2019-11-14 11:00:00 4.5 6 Norte 22 Noroeste 1 -- -- 92
2019-11-14 10:00:00 4.1 8 Noroeste 30 Norte 1.6 -- -- 90
2019-11-14 09:00:00 8.2 10 Sudoeste 29 Oeste 0 -- -- 87
2019-11-14 08:00:00 8 12 Sudoeste 28 Oeste 0 -- -- 84
2019-11-14 07:00:00 8 10 Sudoeste 28 Sur 0 -- -- 83
2019-11-14 06:00:00 8 7 Sudoeste 30 Oeste 0 -- -- 84
2019-11-14 05:00:00 8.1 9 Oeste 31 Oeste 0 -- -- 86
2019-11-14 04:00:00 8.9 9 Oeste 28 Sudoeste 0 -- -- 89
2019-11-14 03:00:00 9.3 9 Sudoeste 24 Oeste 0 -- -- 91
2019-11-14 02:00:00 9.6 6 Sudoeste 20 Oeste 0 -- -- 90
2019-11-14 01:00:00 9.7 6 Sudoeste 19 Sur 0 -- -- 90
2019-11-14 00:00:00 9.9 6 Sudoeste 20 Oeste 0 -- -- 89
2019-11-13 23:00:00 10.2 5 Sudoeste 19 Oeste 0 -- -- 82
2019-11-13 22:00:00 11.4 7 Sudoeste 19 Oeste 0 -- -- 76
2019-11-13 21:00:00 12.7 2 Sudoeste 9 Oeste 0 -- -- 73
2019-11-13 20:00:00 13.3 3 Noroeste 11 Oeste 0 -- -- 67
2019-11-13 19:00:00 13.6 0 Calma 4 Oeste 0 -- -- 64
2019-11-13 18:00:00 14.7 0 Calma 8 Noroeste 0 -- -- 58
2019-11-13 17:00:00 15.8 3 Noroeste 19 Noroeste 0 -- -- 54
2019-11-13 16:00:00 16.7 9 Norte 23 Noroeste 0 -- -- 54
2019-11-13 15:00:00 16.7 7 Norte 27 Norte 0 -- -- 54
2019-11-13 14:00:00 16.9 9 Noroeste 33 Noroeste 0 -- -- 57
2019-11-13 13:00:00 16.5 10 Noroeste 33 Noroeste 0 -- -- 65
2019-11-13 12:00:00 13.8 6 Noroeste 33 Noroeste 0.2 -- -- 82
2019-11-13 11:00:00 14.2 7 Oeste 25 Noroeste 0 -- -- 75
2019-11-13 10:00:00 13 10 Oeste 27 Noroeste 0 -- -- 82
2019-11-13 09:00:00 11.4 5 Oeste 23 Oeste 0 -- -- 89
2019-11-13 08:00:00 11.1 9 Oeste 24 Sudoeste 0 -- -- 89
2019-11-13 07:00:00 10.6 10 Oeste 27 Oeste 0 -- -- 88
2019-11-13 06:00:00 10.8 9 Oeste 26 Sudoeste 0 -- -- 87
2019-11-13 05:00:00 10.3 9 Oeste 26 Sudoeste 0 -- -- 90
2019-11-13 04:00:00 9.6 5 Sudoeste 22 Sudoeste 0 -- -- 93
2019-11-13 03:00:00 8.9 6 Sudoeste 21 Sur 0.4 -- -- 90
2019-11-13 02:00:00 8.3 7 Sudoeste 21 Sur 0 -- -- 82
2019-11-13 01:00:00 8.3 6 Sudoeste 18 Oeste 0 -- -- 78
2019-11-13 00:00:00 8.4 6 Sudoeste 17 Sur 0 -- -- 77
2019-11-12 23:00:00 8.3 5 Sudoeste 10 Sur 0 -- -- 81
2019-11-12 22:00:00 8.1 3 Sudoeste 11 Oeste 0 -- -- 80
2019-11-12 21:00:00 8 3 Oeste 6 Oeste 0 -- -- 76
2019-11-12 20:00:00 8.8 2 Sudoeste 12 Oeste 0 -- -- 69
2019-11-12 19:00:00 9.9 3 Oeste 8 Oeste 0 -- -- 58
2019-11-12 18:00:00 11 2 Noroeste 13 Noroeste 0 -- -- 51
2019-11-12 17:00:00 12 5 Noroeste 23 Noroeste 0 -- -- 48
2019-11-12 16:00:00 12.3 7 Noroeste 22 Norte 0 -- -- 50
2019-11-12 15:00:00 12 10 Noroeste 25 Noroeste 0 -- -- 52
2019-11-12 14:00:00 12 5 Noroeste 17 Norte 0 -- -- 55
2019-11-12 13:00:00 11.4 4 Noroeste 20 Oeste 0 -- -- 56
2019-11-12 12:00:00 10.8 6 Norte 16 Norte 0 -- -- 59
2019-11-12 11:00:00 9.6 5 Noroeste 15 Noroeste 0 -- -- 66
2019-11-12 10:00:00 6.9 5 Norte 9 Norte 0 -- -- 81
2019-11-12 09:00:00 3.7 0 Calma 6 Oeste 0 -- -- 93
2019-11-12 08:00:00 3.3 0 Calma 3 Oeste 0 -- -- 92
2019-11-12 07:00:00 3.9 0 Calma 5 Oeste 0 -- -- 90
2019-11-12 06:00:00 4.8 2 Noroeste 8 Nordeste 0 -- -- 87
2019-11-12 05:00:00 5.3 3 Norte 16 Norte 0 -- -- 88
2019-11-12 04:00:00 4.5 3 Noroeste 10 Norte 0 -- -- 89
2019-11-12 03:00:00 4.7 4 Norte 13 Norte 0 -- -- 92
2019-11-12 02:00:00 4.9 4 Norte 11 Noroeste 0 -- -- 97
2019-11-12 01:00:00 5.1 5 Norte 11 Noroeste 0 -- -- 97
2019-11-12 00:00:00 6.1 3 Noroeste 13 Noroeste 0 -- -- 96